createdAt,value
2022-11-26T00:01:22.521Z,13.68
2022-11-26T00:04:24.637Z,13.70
2022-11-26T00:07:29.975Z,13.58
2022-11-26T00:10:36.471Z,13.81
2022-11-26T00:13:38.433Z,13.79
2022-11-26T00:16:40.646Z,13.83
2022-11-26T00:19:44.033Z,13.78
2022-11-26T00:22:50.946Z,13.81
2022-11-26T00:25:59.878Z,13.65
2022-11-26T00:29:01.861Z,13.77
2022-11-26T00:32:06.201Z,13.75
2022-11-26T00:35:08.503Z,13.80
2022-11-26T00:38:17.154Z,13.76
2022-11-26T00:41:22.401Z,13.62
2022-11-26T00:44:26.101Z,13.77
2022-11-26T00:47:28.093Z,13.56
2022-11-26T00:50:36.925Z,13.69
2022-11-26T00:53:40.754Z,13.63
2022-11-26T00:56:42.994Z,13.54
2022-11-26T00:59:45.024Z,13.61
2022-11-26T01:02:47.320Z,13.59
2022-11-26T01:05:54.923Z,13.44
2022-11-26T01:08:57.318Z,13.52
2022-11-26T01:11:59.866Z,13.52
2022-11-26T01:15:01.946Z,13.54
2022-11-26T01:18:15.083Z,13.65
2022-11-26T01:21:17.907Z,13.57
2022-11-26T01:24:19.977Z,13.53
2022-11-26T01:27:22.116Z,13.44
2022-11-26T01:30:26.897Z,13.49
2022-11-26T01:33:28.944Z,13.53
2022-11-26T01:36:33.625Z,13.49
2022-11-26T01:39:35.662Z,13.55
2022-11-26T01:42:49.705Z,13.52
2022-11-26T01:45:51.831Z,13.55
2022-11-26T01:48:55.882Z,13.54
2022-11-26T01:52:16.118Z,13.48
2022-11-26T01:55:19.436Z,13.39
2022-11-26T01:58:27.397Z,13.44
2022-11-26T02:01:29.637Z,13.38
2022-11-26T02:04:34.956Z,13.39
2022-11-26T02:07:37.777Z,13.38
2022-11-26T02:10:39.831Z,13.48
2022-11-26T02:13:42.067Z,13.49
2022-11-26T02:17:02.473Z,13.41
2022-11-26T02:20:10.299Z,13.46
2022-11-26T02:23:18.076Z,13.40
2022-11-26T02:26:41.730Z,13.38
2022-11-26T02:29:51.716Z,13.34
2022-11-26T02:33:04.664Z,13.28
2022-11-26T02:36:19.618Z,13.36
2022-11-26T02:39:24.821Z,13.36
2022-11-26T02:42:29.730Z,13.26
2022-11-26T02:45:37.361Z,13.33
2022-11-26T02:48:43.625Z,13.44
2022-11-26T02:51:48.191Z,13.43
2022-11-26T02:54:52.925Z,13.46
2022-11-26T02:57:56.269Z,13.40
2022-11-26T03:01:00.864Z,13.43
2022-11-26T03:04:09.791Z,13.38
2022-11-26T03:07:15.065Z,13.41
2022-11-26T03:10:17.296Z,13.33
2022-11-26T03:13:19.338Z,13.33
2022-11-26T03:16:21.526Z,13.40
2022-11-26T03:19:23.661Z,13.43
2022-11-26T03:22:25.853Z,13.36
2022-11-26T03:25:27.909Z,13.32
2022-11-26T03:28:30.480Z,13.41
2022-11-26T03:31:32.621Z,13.24
2022-11-26T03:34:34.692Z,13.17
2022-11-26T03:37:37.491Z,13.21
2022-11-26T03:40:39.530Z,13.15
2022-11-26T03:43:41.665Z,13.15
2022-11-26T03:46:43.698Z,13.02
2022-11-26T03:49:45.770Z,13.01
2022-11-26T03:52:47.913Z,13.24
2022-11-26T03:55:49.877Z,13.17
2022-11-26T03:58:51.851Z,13.34
2022-11-26T04:01:53.996Z,13.11
2022-11-26T04:04:56.122Z,13.18
2022-11-26T04:07:58.071Z,13.18
2022-11-26T04:11:00.241Z,13.32
2022-11-26T04:14:02.310Z,13.24
2022-11-26T04:17:04.491Z,13.14
2022-11-26T04:20:07.499Z,13.35
2022-11-26T04:23:09.521Z,13.26
2022-11-26T04:26:11.580Z,13.16
2022-11-26T04:29:13.643Z,13.27
2022-11-26T04:32:15.709Z,13.38
2022-11-26T04:35:17.896Z,13.38
2022-11-26T04:38:25.329Z,13.35
2022-11-26T04:41:28.115Z,13.38
2022-11-26T04:44:30.335Z,13.31
2022-11-26T04:47:32.331Z,13.32
2022-11-26T04:50:34.443Z,13.39
2022-11-26T04:53:36.443Z,13.35
2022-11-26T04:56:38.548Z,13.32
2022-11-26T04:59:40.588Z,13.39
2022-11-26T05:02:42.997Z,13.33
2022-11-26T05:05:45.026Z,13.07
2022-11-26T05:08:47.088Z,13.16
2022-11-26T05:11:49.238Z,13.24
2022-11-26T05:14:51.376Z,13.40
2022-11-26T05:17:53.453Z,13.87
2022-11-26T05:20:55.566Z,14.29
2022-11-26T05:23:57.593Z,14.38
2022-11-26T05:26:59.676Z,14.17
2022-11-26T05:30:02.123Z,14.67
2022-11-26T05:33:04.284Z,14.88
2022-11-26T05:36:06.461Z,15.70
2022-11-26T05:39:08.497Z,15.75
2022-11-26T05:42:10.570Z,15.65
2022-11-26T05:45:12.580Z,15.45
2022-11-26T05:48:14.507Z,15.21
2022-11-26T05:51:16.572Z,15.36
2022-11-26T05:54:18.648Z,15.34
2022-11-26T05:57:20.933Z,15.48
2022-11-26T06:00:23.442Z,15.48
2022-11-26T06:03:25.613Z,15.54
2022-11-26T06:06:27.731Z,15.92
2022-11-26T06:09:29.806Z,15.93
2022-11-26T06:12:31.893Z,15.96
2022-11-26T06:15:33.960Z,15.77
2022-11-26T06:18:39.236Z,15.51
2022-11-26T06:21:41.265Z,15.41
2022-11-26T06:24:43.255Z,15.47
2022-11-26T06:27:45.318Z,15.30
2022-11-26T06:30:47.455Z,15.16
2022-11-26T06:33:54.282Z,15.40
2022-11-26T06:36:56.334Z,15.79
2022-11-26T06:39:58.590Z,15.93
2022-11-26T06:43:00.781Z,16.40
2022-11-26T06:46:05.673Z,16.95
2022-11-26T06:49:07.815Z,17.18
2022-11-26T06:52:09.948Z,17.03
2022-11-26T06:55:12.177Z,17.17
2022-11-26T06:58:15.110Z,16.88
2022-11-26T07:01:25.019Z,16.78
2022-11-26T07:04:27.378Z,16.61
2022-11-26T07:07:29.728Z,16.55
2022-11-26T07:10:31.917Z,16.52
2022-11-26T07:13:34.017Z,16.53
2022-11-26T07:16:36.750Z,16.50
2022-11-26T07:19:38.976Z,16.50
2022-11-26T07:22:41.017Z,16.51
2022-11-26T07:25:42.956Z,16.25
2022-11-26T07:28:45.104Z,16.21
2022-11-26T07:31:50.136Z,16.15
2022-11-26T07:34:53.995Z,16.14
2022-11-26T07:37:56.631Z,16.15
2022-11-26T07:41:10.331Z,16.12
2022-11-26T07:44:14.371Z,16.01
2022-11-26T07:47:17.577Z,16.09
2022-11-26T07:50:19.690Z,16.00
2022-11-26T07:53:21.949Z,15.98
2022-11-26T07:56:24.703Z,15.99
2022-11-26T07:59:27.242Z,15.61
2022-11-26T08:02:29.236Z,15.51
2022-11-26T08:05:31.296Z,15.54
2022-11-26T08:08:34.883Z,15.57
2022-11-26T08:11:37.094Z,15.62
2022-11-26T08:14:39.232Z,15.59
2022-11-26T08:17:41.474Z,15.91
2022-11-26T08:20:43.573Z,16.52
2022-11-26T08:23:47.931Z,16.83
2022-11-26T08:26:57.276Z,16.69
2022-11-26T08:29:59.365Z,16.64
2022-11-26T08:33:04.009Z,16.63
2022-11-26T08:36:08.587Z,17.14
2022-11-26T08:39:15.329Z,17.32
2022-11-26T08:42:17.407Z,18.41
2022-11-26T08:45:19.419Z,17.44
2022-11-26T08:48:22.912Z,17.83
2022-11-26T08:51:25.147Z,18.85
2022-11-26T08:54:27.563Z,19.60
2022-11-26T08:57:29.565Z,20.89
2022-11-26T09:00:31.622Z,20.85
2022-11-26T09:03:33.728Z,20.68
2022-11-26T09:06:38.503Z,20.24
2022-11-26T09:09:42.913Z,20.90
2022-11-26T09:12:45.107Z,21.02
2022-11-26T09:15:48.636Z,20.72
2022-11-26T09:18:52.628Z,18.84
2022-11-26T09:21:55.091Z,18.29
2022-11-26T09:24:57.079Z,18.01
2022-11-26T09:27:59.151Z,17.96
2022-11-26T09:31:02.256Z,18.62
2022-11-26T09:34:04.437Z,18.10
2022-11-26T09:37:06.960Z,17.70
2022-11-26T09:40:19.043Z,17.82
2022-11-26T09:43:33.560Z,17.86
2022-11-26T09:47:12.581Z,17.68
2022-11-26T09:50:15.290Z,18.18
2022-11-26T09:53:25.744Z,18.66
2022-11-26T09:56:27.906Z,18.82
2022-11-26T09:59:30.871Z,18.99
2022-11-26T10:02:40.886Z,18.49
2022-11-26T10:06:03.153Z,17.54
2022-11-26T10:09:17.014Z,17.05
2022-11-26T10:13:03.427Z,17.07
2022-11-26T10:16:15.293Z,16.92
2022-11-26T10:19:44.980Z,17.01
2022-11-26T10:22:58.628Z,16.94
2022-11-26T10:26:29.596Z,16.63
2022-11-26T10:29:39.523Z,16.88
2022-11-26T10:32:44.916Z,17.02
2022-11-26T10:35:49.659Z,17.07
2022-11-26T10:38:53.681Z,17.18
2022-11-26T10:41:56.028Z,17.10
2022-11-26T10:45:18.710Z,17.35
2022-11-26T10:48:27.113Z,17.35
2022-11-26T10:51:33.299Z,17.16
2022-11-26T10:54:38.208Z,17.08
2022-11-26T10:57:43.965Z,17.06
2022-11-26T11:00:48.847Z,16.90
2022-11-26T11:04:13.087Z,16.77
2022-11-26T11:07:34.691Z,16.77
2022-11-26T11:10:38.030Z,16.63
2022-11-26T11:13:45.009Z,16.55
2022-11-26T11:16:47.131Z,16.37
2022-11-26T11:19:49.187Z,16.39
2022-11-26T11:23:00.482Z,16.40
2022-11-26T11:26:09.154Z,16.35
2022-11-26T11:29:35.401Z,16.27
2022-11-26T11:32:40.741Z,16.24
2022-11-26T11:35:43.039Z,16.17
2022-11-26T11:38:53.883Z,16.09
2022-11-26T11:42:05.020Z,16.00
2022-11-26T11:45:23.225Z,15.88
2022-11-26T11:48:43.744Z,16.14
2022-11-26T11:51:58.375Z,16.30
2022-11-26T11:55:28.991Z,16.10
2022-11-26T11:58:38.284Z,15.97
2022-11-26T12:01:54.187Z,15.94
2022-11-26T12:05:17.846Z,15.77
2022-11-26T12:08:45.777Z,16.01
2022-11-26T12:11:59.206Z,16.20
2022-11-26T12:15:22.100Z,16.43
2022-11-26T12:18:46.520Z,16.54
2022-11-26T12:21:56.944Z,16.47
2022-11-26T12:25:18.167Z,16.80
2022-11-26T12:28:27.963Z,16.94
2022-11-26T12:31:39.150Z,16.98
2022-11-26T12:34:47.684Z,16.97
2022-11-26T12:38:39.614Z,16.90
2022-11-26T12:41:48.280Z,16.66
2022-11-26T12:44:55.654Z,16.64
2022-11-26T12:48:05.623Z,16.59
2022-11-26T12:51:26.690Z,16.42
2022-11-26T12:54:28.759Z,16.48
2022-11-26T12:58:08.201Z,16.54
2022-11-26T13:01:11.773Z,16.37
2022-11-26T13:08:32.357Z,16.32
2022-11-26T13:11:55.233Z,16.11
2022-11-26T13:15:32.050Z,16.07
2022-11-26T13:18:38.869Z,16.07
2022-11-26T13:21:54.764Z,16.11
2022-11-26T13:25:28.619Z,16.00
2022-11-26T13:29:18.094Z,15.85
2022-11-26T13:32:44.323Z,15.87
2022-11-26T13:36:26.946Z,15.66
2022-11-26T13:39:50.645Z,15.71
2022-11-26T13:43:17.109Z,15.68
2022-11-26T13:46:47.090Z,15.74
2022-11-26T13:50:14.938Z,15.75
2022-11-26T13:53:32.703Z,16.04
2022-11-26T13:56:38.376Z,16.63
2022-11-26T13:59:57.175Z,16.91
2022-11-26T14:03:01.273Z,16.69
2022-11-26T14:06:07.817Z,16.62
2022-11-26T14:09:57.716Z,16.36
2022-11-26T14:13:05.885Z,16.26
2022-11-26T14:16:16.188Z,16.23
2022-11-26T14:19:22.227Z,16.61
2022-11-26T14:22:34.996Z,17.16
2022-11-26T14:25:40.314Z,17.25
2022-11-26T14:28:43.171Z,16.64
2022-11-26T14:31:54.050Z,16.24
2022-11-26T14:35:01.062Z,15.98
2022-11-26T14:38:09.724Z,16.78
2022-11-26T14:41:11.589Z,16.62
2022-11-26T14:44:18.594Z,16.72
2022-11-26T14:47:22.231Z,16.47
2022-11-26T14:50:24.932Z,16.55
2022-11-26T14:53:31.089Z,17.48
2022-11-26T14:56:42.763Z,17.52
2022-11-26T15:00:02.602Z,17.90
2022-11-26T15:03:25.467Z,18.42
2022-11-26T15:06:30.222Z,19.65
2022-11-26T15:09:32.331Z,18.86
2022-11-26T15:13:04.721Z,19.79
2022-11-26T15:16:53.989Z,19.91
2022-11-26T15:20:02.836Z,20.43
2022-11-26T15:23:09.395Z,20.59
2022-11-26T15:29:49.424Z,20.70
2022-11-26T15:33:10.214Z,20.87
2022-11-26T15:36:17.451Z,20.65
2022-11-26T15:39:32.045Z,20.60
2022-11-26T15:42:34.482Z,20.97
2022-11-26T15:45:40.751Z,21.22
2022-11-26T15:48:53.737Z,20.94
2022-11-26T15:52:03.715Z,20.84
2022-11-26T15:55:12.984Z,21.17
2022-11-26T15:58:31.814Z,21.12
2022-11-26T16:01:36.590Z,21.20
2022-11-26T16:05:08.450Z,20.95
2022-11-26T16:08:27.979Z,21.05
2022-11-26T16:11:32.059Z,21.02
2022-11-26T16:14:36.713Z,20.68
2022-11-26T16:17:39.476Z,20.86
2022-11-26T16:20:42.546Z,21.12
2022-11-26T16:23:53.945Z,20.79
2022-11-26T16:27:02.251Z,20.96
2022-11-26T16:30:14.772Z,21.11
2022-11-26T16:33:19.280Z,21.26
2022-11-26T16:36:24.319Z,21.30
2022-11-26T16:39:30.025Z,20.82
2022-11-26T16:42:57.586Z,21.16
2022-11-26T16:46:01.295Z,20.29
2022-11-26T16:49:03.742Z,20.77
2022-11-26T16:52:19.340Z,20.28
2022-11-26T16:55:26.237Z,19.85
2022-11-26T16:58:32.943Z,19.19
2022-11-26T17:01:36.139Z,18.60
2022-11-26T17:04:38.169Z,18.15
2022-11-26T17:07:46.645Z,17.87
2022-11-26T17:10:48.927Z,17.63
2022-11-26T17:13:51.114Z,17.45
2022-11-26T17:16:53.298Z,17.41
2022-11-26T17:19:56.818Z,17.32
2022-11-26T17:22:58.850Z,17.09
2022-11-26T17:26:01.362Z,17.01
2022-11-26T17:29:03.789Z,16.81
2022-11-26T17:32:05.769Z,16.68
2022-11-26T17:35:07.853Z,16.48
2022-11-26T17:38:23.180Z,16.50
2022-11-26T17:41:25.220Z,16.34
2022-11-26T17:44:27.255Z,16.34
2022-11-26T17:47:29.386Z,16.30
2022-11-26T17:50:33.480Z,16.09
2022-11-26T17:53:39.693Z,16.03
2022-11-26T17:56:41.870Z,16.07
2022-11-26T17:59:49.630Z,16.04
2022-11-26T18:02:52.338Z,15.93
2022-11-26T18:05:54.606Z,15.89
2022-11-26T18:08:58.427Z,15.91
2022-11-26T18:12:01.304Z,15.74
2022-11-26T18:15:04.204Z,15.80
2022-11-26T18:18:07.703Z,16.02
2022-11-26T18:21:12.168Z,16.28
2022-11-26T18:24:14.219Z,16.39
2022-11-26T18:27:16.299Z,16.35
2022-11-26T18:30:19.114Z,16.37
2022-11-26T18:33:21.523Z,16.37
2022-11-26T18:36:23.640Z,16.41
2022-11-26T18:39:25.639Z,16.29
2022-11-26T18:42:43.075Z,16.27
2022-11-26T18:45:46.745Z,16.27
2022-11-26T18:48:51.318Z,16.50
2022-11-26T18:51:53.381Z,16.46
2022-11-26T18:54:56.341Z,16.11
2022-11-26T18:57:58.827Z,16.10
2022-11-26T19:01:00.896Z,16.16
2022-11-26T19:04:03.694Z,16.65
2022-11-26T19:07:05.838Z,16.42
2022-11-26T19:10:08.483Z,16.36
2022-11-26T19:13:10.641Z,16.23
2022-11-26T19:16:16.772Z,16.17
2022-11-26T19:19:19.624Z,16.01
2022-11-26T19:22:21.679Z,15.67
2022-11-26T19:25:24.150Z,16.01
2022-11-26T19:28:27.573Z,16.10
2022-11-26T19:31:34.962Z,18.30
2022-11-26T19:34:38.546Z,19.32
2022-11-26T19:37:40.592Z,18.25
2022-11-26T19:40:45.906Z,17.10
2022-11-26T19:43:48.116Z,16.53
2022-11-26T19:46:56.044Z,16.17
2022-11-26T19:50:03.366Z,15.91
2022-11-26T19:53:05.396Z,15.84
2022-11-26T19:56:19.677Z,15.68
2022-11-26T19:59:22.874Z,15.69
2022-11-26T20:02:31.519Z,15.54
2022-11-26T20:05:33.576Z,15.67
2022-11-26T20:08:38.409Z,15.84
2022-11-26T20:11:41.235Z,15.86
2022-11-26T20:14:43.328Z,15.78
2022-11-26T20:17:45.422Z,15.51
2022-11-26T20:21:19.955Z,15.47
2022-11-26T20:24:22.031Z,15.58
2022-11-26T20:27:24.063Z,16.21
2022-11-26T20:30:26.871Z,16.26
2022-11-26T20:33:28.810Z,16.49
2022-11-26T20:36:31.943Z,16.57
2022-11-26T20:39:34.215Z,16.63
2022-11-26T20:42:37.776Z,16.54
2022-11-26T20:45:40.212Z,16.45
2022-11-26T20:48:44.546Z,16.48
2022-11-26T20:51:46.657Z,16.50
2022-11-26T20:54:53.442Z,16.65
2022-11-26T20:57:55.969Z,16.91
2022-11-26T21:00:58.114Z,17.06
2022-11-26T21:04:00.327Z,17.19
2022-11-26T21:07:04.836Z,17.22
2022-11-26T21:10:09.486Z,17.29
2022-11-26T21:13:19.353Z,17.27
2022-11-26T21:16:22.620Z,17.23
2022-11-26T21:19:24.985Z,17.17
2022-11-26T21:22:27.047Z,17.17
2022-11-26T21:25:29.086Z,17.28
2022-11-26T21:28:31.145Z,17.90
2022-11-26T21:31:33.216Z,18.13
2022-11-26T21:34:35.234Z,17.90
2022-11-26T21:37:37.468Z,17.85
2022-11-26T21:40:39.527Z,17.60
2022-11-26T21:43:42.853Z,17.54
2022-11-26T21:46:44.913Z,17.38
2022-11-26T21:49:47.038Z,17.38
2022-11-26T21:52:49.087Z,17.33
2022-11-26T21:55:53.245Z,17.21
2022-11-26T21:58:57.159Z,17.13
2022-11-26T22:01:59.225Z,17.01
2022-11-26T22:05:01.566Z,17.04
2022-11-26T22:08:04.006Z,17.04
2022-11-26T22:11:15.070Z,16.65
2022-11-26T22:14:17.381Z,16.82
2022-11-26T22:17:19.514Z,16.67
2022-11-26T22:20:21.816Z,16.49
2022-11-26T22:23:23.916Z,16.37
2022-11-26T22:26:27.698Z,16.26
2022-11-26T22:29:29.684Z,16.23
2022-11-26T22:32:31.701Z,16.23
2022-11-26T22:35:33.836Z,16.08
2022-11-26T22:38:37.580Z,16.13
2022-11-26T22:41:41.244Z,16.09
2022-11-26T22:44:43.264Z,15.99
2022-11-26T22:47:49.859Z,15.98
2022-11-26T22:50:55.722Z,15.88
2022-11-26T22:54:03.950Z,15.84
2022-11-26T22:57:06.096Z,15.85
2022-11-26T23:00:14.885Z,15.91
2022-11-26T23:03:18.145Z,15.88
2022-11-26T23:06:22.923Z,15.83
2022-11-26T23:09:25.131Z,15.69
2022-11-26T23:12:27.139Z,15.67
2022-11-26T23:15:29.682Z,15.54
2022-11-26T23:18:31.711Z,15.62
2022-11-26T23:21:36.878Z,15.64
2022-11-26T23:24:38.862Z,15.69
2022-11-26T23:27:40.974Z,15.61
2022-11-26T23:30:43.190Z,15.61
2022-11-26T23:33:45.778Z,15.60
2022-11-26T23:36:48.057Z,15.52
2022-11-26T23:39:50.721Z,15.73
2022-11-26T23:42:52.909Z,15.73
2022-11-26T23:46:02.863Z,15.78
2022-11-26T23:49:05.188Z,15.71
2022-11-26T23:52:07.294Z,15.72
2022-11-26T23:55:10.509Z,15.72
2022-11-26T23:58:12.644Z,15.76
